Time;durP1;ratioP1;P1;durP2;ratioP2;P2;SDS_P1;SDS_P2;PMS_P1;PMS_P2;Temp;Humidity;BMP_temperature;BMP_pressure;BME280_temperature;BME280_humidity;BME280_pressure;Samples;Min_cycle;Max_cycle;Signal;HPM_P1;HPM_P2
2022/02/05 00:38:24;;;;;;;;;;;;;;;;;;5078665;28;19959;-96
2022/02/05 00:41:14;;;;;;;;;;;;;;;;;;5079108;28;19916;-96
2022/02/05 01:10:04;;;;;;;;;;;;;;;;;;654173;22;20178;-96
2022/02/05 01:15:11;;;;;;;;;;;;;;;;;;5069427;28;20330;-96
2022/02/05 01:17:38;;;;;;;;;;;;;;;;;;5067647;28;19924;-96
2022/02/05 01:23:04;;;;;;;;;;;;;;;;;;5045326;28;19975;-96
2022/02/05 01:25:36;;;;;;;;;;;;;;;;;;5045370;28;19925;-96
2022/02/05 01:28:09;;;;;;;;;;;;;;;;;;5045382;28;19929;-96
2022/02/05 01:30:39;;;;;;;;;;;;;;;;;;5045544;28;19931;-96
2022/02/05 01:33:18;;;;;;;;;;;;;;;;;;5045312;28;19925;-96
2022/02/05 01:35:59;;;;;;;;;;;;;;;;;;5049548;28;20435;-96
2022/02/05 01:49:53;;;;;;;;;;;;;;;;;;5063690;28;19919;-94
2022/02/05 01:52:24;;;;;;;;;;;;;;;;;;5075679;28;19931;-95
2022/02/05 01:55:07;;;;;;;;;;;;;;;;;;5080932;28;19928;-96
2022/02/05 01:57:56;;;;;;;;;;;;;;;;;;5068906;28;20522;-95
2022/02/05 02:06:10;;;;;;;;;;;;;;;;;;5063251;28;20384;-94
2022/02/05 02:11:43;;;;;;;;;;;;;;;;;;5061943;28;19943;-95
2022/02/05 02:14:29;;;;;;;;;;;;;;;;;;5060282;28;19974;-96
2022/02/05 02:19:54;;;;;;;;;;;;;;;;;;5036378;28;20417;-94
2022/02/05 02:22:26;;;;;;;;;;;;;;;;;;5062428;28;19932;-94
2022/02/05 02:25:02;;;;;;;;;;;;;;;;;;5061996;28;19943;-94
2022/02/05 02:27:36;;;;;;;;;;;;;;;;;;5061843;28;19929;-93
2022/02/05 02:30:06;;;;;;;;;;;;;;;;;;5061811;28;20326;-94
2022/02/05 02:32:34;;;;;;;;;;;;;;;;;;5060806;28;19924;-96
2022/02/05 02:35:05;;;;;;;;;;;;;;;;;;5062759;28;19925;-95
2022/02/05 02:37:37;;;;;;;;;;;;;;;;;;5081437;28;19925;-96
2022/02/05 02:40:09;;;;;;;;;;;;;;;;;;5086802;28;20418;-96
2022/02/05 02:42:41;;;;;;;;;;;;;;;;;;5092954;28;19924;-96
2022/02/05 02:45:07;;;;;;;;;;;;;;;;;;5083760;28;19950;-94
2022/02/05 02:47:34;;;;;;;;;;;;;;;;;;5068409;28;19929;-94
2022/02/05 02:50:05;;;;;;;;;;;;;;;;;;5062090;28;19925;-92
2022/02/05 02:58:02;;;;;;;;;;;;;;;;;;5060459;28;19952;-94
2022/02/05 03:00:28;;;;;;;;;;;;;;;;;;5060785;28;19925;-92
2022/02/05 03:02:55;;;;;;;;;;;;;;;;;;5062363;28;19929;-92
2022/02/05 03:05:21;;;;;;;;;;;;;;;;;;5061633;28;19929;-92
2022/02/05 03:07:47;;;;;;;;;;;;;;;;;;5060161;28;19929;-92
2022/02/05 03:10:14;;;;;;;;;;;;;;;;;;5060475;28;19928;-92
2022/02/05 03:12:42;;;;;;;;;;;;;;;;;;5061894;28;20421;-92
2022/02/05 03:15:11;;;;;;;;;;;;;;;;;;5061887;28;19928;-92
2022/02/05 03:17:40;;;;;;;;;;;;;;;;;;5061919;28;19925;-92
2022/02/05 03:20:07;;;;;;;;;;;;;;;;;;5062038;28;20000;-93
2022/02/05 03:22:33;;;;;;;;;;;;;;;;;;5061567;28;19925;-92
2022/02/05 03:25:00;;;;;;;;;;;;;;;;;;5061438;28;19947;-94
2022/02/05 03:27:26;;;;;;;;;;;;;;;;;;5061854;28;19933;-93
2022/02/05 03:29:53;;;;;;;;;;;;;;;;;;5061531;28;19936;-93
2022/02/05 03:32:19;;;;;;;;;;;;;;;;;;5062128;28;19947;-92
2022/02/05 03:34:45;;;;;;;;;;;;;;;;;;5062079;28;19929;-93
2022/02/05 03:37:12;;;;;;;;;;;;;;;;;;5059435;28;19925;-93
2022/02/05 03:39:38;;;;;;;;;;;;;;;;;;5059265;28;19952;-92
2022/02/05 03:42:04;;;;;;;;;;;;;;;;;;5066654;28;19928;-93
2022/02/05 03:44:32;;;;;;;;;;;;;;;;;;5084565;28;19974;-92
2022/02/05 03:46:58;;;;;;;;;;;;;;;;;;5083804;28;19947;-92
2022/02/05 03:49:24;;;;;;;;;;;;;;;;;;5083805;28;19925;-91
2022/02/05 03:51:51;;;;;;;;;;;;;;;;;;5084883;28;20012;-92
2022/02/05 03:54:18;;;;;;;;;;;;;;;;;;5084962;28;19947;-92
2022/02/05 03:56:44;;;;;;;;;;;;;;;;;;5075831;28;20007;-90
2022/02/05 03:59:11;;;;;;;;;;;;;;;;;;5084710;28;19928;-92
2022/02/05 04:01:37;;;;;;;;;;;;;;;;;;5083046;28;19950;-91
2022/02/05 04:04:03;;;;;;;;;;;;;;;;;;5077947;28;19955;-92
2022/02/05 04:06:29;;;;;;;;;;;;;;;;;;5080517;28;19928;-92
2022/02/05 04:08:59;;;;;;;;;;;;;;;;;;5082451;28;19928;-91
2022/02/05 04:11:34;;;;;;;;;;;;;;;;;;5083396;28;19998;-91
2022/02/05 04:16:44;;;;;;;;;;;;;;;;;;5084179;28;19919;-91
2022/02/05 04:19:10;;;;;;;;;;;;;;;;;;5083720;28;19924;-91
2022/02/05 04:21:36;;;;;;;;;;;;;;;;;;5083549;28;19924;-90
2022/02/05 04:24:02;;;;;;;;;;;;;;;;;;5084268;28;19948;-91
2022/02/05 04:26:29;;;;;;;;;;;;;;;;;;5084301;28;19928;-91
2022/02/05 04:28:55;;;;;;;;;;;;;;;;;;5083539;28;19951;-91
2022/02/05 04:31:21;;;;;;;;;;;;;;;;;;5083170;28;19925;-90
2022/02/05 04:33:47;;;;;;;;;;;;;;;;;;5081908;28;19946;-91
2022/02/05 04:36:14;;;;;;;;;;;;;;;;;;5076924;28;19929;-90
2022/02/05 04:38:42;;;;;;;;;;;;;;;;;;5077395;28;20566;-91
2022/02/05 04:41:14;;;;;;;;;;;;;;;;;;5079820;28;19928;-91
2022/02/05 04:44:01;;;;;;;;;;;;;;;;;;5083614;28;19960;-89
2022/02/05 04:54:53;;;;;;;;;;;;;;;;;;5075681;28;19988;-91
2022/02/05 04:57:35;;;;;;;;;;;;;;;;;;5078600;28;20046;-91
2022/02/05 05:00:17;;;;;;;;;;;;;;;;;;5078937;28;20236;-90
2022/02/05 05:02:58;;;;;;;;;;;;;;;;;;5076676;28;20483;-91
2022/02/05 05:05:42;;;;;;;;;;;;;;;;;;5078102;28;19932;-90
2022/02/05 05:08:27;;;;;;;;;;;;;;;;;;5079107;28;20433;-90
2022/02/05 05:11:20;;;;;;;;;;;;;;;;;;5046834;28;19952;-91
2022/02/05 05:19:30;;;;;;;;;;;;;;;;;;5061596;28;19947;-89
2022/02/05 05:21:56;;;;;;;;;;;;;;;;;;5063802;28;19925;-90
2022/02/05 05:24:23;;;;;;;;;;;;;;;;;;5063142;28;19929;-90
2022/02/05 05:26:49;;;;;;;;;;;;;;;;;;5063471;28;19983;-90
2022/02/05 05:29:15;;;;;;;;;;;;;;;;;;5063398;28;19928;-90
2022/02/05 05:31:41;;;;;;;;;;;;;;;;;;5063356;28;19933;-90
2022/02/05 05:34:08;;;;;;;;;;;;;;;;;;5063273;28;19998;-90
2022/02/05 05:36:34;;;;;;;;;;;;;;;;;;5063178;28;19925;-90
2022/02/05 05:39:02;;;;;;;;;;;;;;;;;;5062882;28;19975;-90
2022/02/05 05:41:28;;;;;;;;;;;;;;;;;;5062590;28;20031;-91
2022/02/05 05:44:05;;;;;;;;;;;;;;;;;;5062005;28;19951;-91
2022/02/05 05:46:34;;;;;;;;;;;;;;;;;;5062336;28;19960;-91
2022/02/05 05:49:11;;;;;;;;;;;;;;;;;;5062778;28;19924;-90
2022/02/05 05:51:37;;;;;;;;;;;;;;;;;;5062129;28;19929;-90
2022/02/05 05:54:03;;;;;;;;;;;;;;;;;;5062310;28;19933;-89
2022/02/05 05:56:30;;;;;;;;;;;;;;;;;;5061223;28;19925;-90
2022/02/05 05:58:56;;;;;;;;;;;;;;;;;;5060103;28;19925;-90
2022/02/05 06:01:22;;;;;;;;;;;;;;;;;;5060993;28;19951;-89
2022/02/05 06:03:48;;;;;;;;;;;;;;;;;;5060742;28;19924;-90
2022/02/05 06:06:15;;;;;;;;;;;;;;;;;;5061638;28;19929;-91
2022/02/05 06:08:41;;;;;;;;;;;;;;;;;;5062003;28;19929;-90
2022/02/05 06:11:07;;;;;;;;;;;;;;;;;;5061418;28;19929;-90
2022/02/05 06:13:35;;;;;;;;;;;;;;;;;;5061382;28;19956;-90
2022/02/05 06:16:04;;;;;;;;;;;;;;;;;;5061694;28;19994;-90
2022/02/05 06:18:30;;;;;;;;;;;;;;;;;;5061397;28;19929;-91
2022/02/05 06:20:57;;;;;;;;;;;;;;;;;;5061899;28;20444;-91
2022/02/05 06:23:23;;;;;;;;;;;;;;;;;;5062510;28;19924;-91
2022/02/05 06:25:49;;;;;;;;;;;;;;;;;;5062192;28;19929;-92
2022/02/05 06:28:16;;;;;;;;;;;;;;;;;;5062415;28;20058;-90
2022/02/05 06:30:43;;;;;;;;;;;;;;;;;;5058874;28;20396;-90
2022/02/05 06:33:09;;;;;;;;;;;;;;;;;;5061346;28;19929;-90
2022/02/05 06:35:35;;;;;;;;;;;;;;;;;;5061841;28;19951;-89
2022/02/05 06:38:01;;;;;;;;;;;;;;;;;;5061916;28;19951;-90
2022/02/05 06:40:27;;;;;;;;;;;;;;;;;;5061608;28;19925;-90
2022/02/05 06:42:54;;;;;;;;;;;;;;;;;;5060084;28;19952;-89
2022/02/05 06:45:20;;;;;;;;;;;;;;;;;;5059872;28;19925;-90
2022/02/05 06:47:46;;;;;;;;;;;;;;;;;;5061259;28;19931;-90
2022/02/05 06:50:12;;;;;;;;;;;;;;;;;;5061581;28;19944;-90
2022/02/05 06:52:39;;;;;;;;;;;;;;;;;;5061630;28;19999;-90
2022/02/05 06:55:05;;;;;;;;;;;;;;;;;;5061427;28;19928;-90
2022/02/05 06:57:31;;;;;;;;;;;;;;;;;;5061777;28;19929;-90
2022/02/05 06:59:57;;;;;;;;;;;;;;;;;;5061432;28;19928;-90
2022/02/05 07:02:24;;;;;;;;;;;;;;;;;;5060989;28;19997;-90
2022/02/05 07:04:50;;;;;;;;;;;;;;;;;;5061287;28;19982;-90
2022/02/05 07:07:16;;;;;;;;;;;;;;;;;;5059754;28;19964;-90
2022/02/05 07:09:43;;;;;;;;;;;;;;;;;;5059242;28;20024;-90
2022/02/05 07:12:11;;;;;;;;;;;;;;;;;;5059822;28;19928;-91
2022/02/05 07:14:44;;;;;;;;;;;;;;;;;;5060359;28;19935;-91
2022/02/05 07:17:17;;;;;;;;;;;;;;;;;;5061467;28;19925;-92
2022/02/05 07:19:56;;;;;;;;;;;;;;;;;;5065239;28;20019;-91
2022/02/05 07:22:24;;;;;;;;;;;;;;;;;;5063573;28;19936;-91
2022/02/05 07:29:12;;;;;;;;;;;;;;;;;;5063949;28;19935;-92
2022/02/05 07:30:30;;;;;;;;;;;;;;;;;;5045339;28;19935;-92
2022/02/05 07:32:56;;;;;;;;;;;;;;;;;;5065506;28;19925;-93
2022/02/05 07:35:22;;;;;;;;;;;;;;;;;;5065426;28;19924;-93
2022/02/05 07:37:52;;;;;;;;;;;;;;;;;;5062797;28;20381;-94
2022/02/05 07:40:19;;;;;;;;;;;;;;;;;;5062860;28;19929;-94
2022/02/05 07:42:45;;;;;;;;;;;;;;;;;;5065265;28;19978;-94
2022/02/05 07:45:11;;;;;;;;;;;;;;;;;;5065041;28;19924;-94
2022/02/05 07:47:38;;;;;;;;;;;;;;;;;;5064677;28;19925;-93
2022/02/05 07:50:04;;;;;;;;;;;;;;;;;;5065059;28;19947;-93
2022/02/05 07:52:30;;;;;;;;;;;;;;;;;;5064230;28;19951;-94
2022/02/05 07:54:56;;;;;;;;;;;;;;;;;;5064027;28;19929;-92
2022/02/05 07:57:23;;;;;;;;;;;;;;;;;;5062859;28;19928;-93
2022/02/05 07:59:49;;;;;;;;;;;;;;;;;;5062199;28;20379;-93
2022/02/05 08:02:15;;;;;;;;;;;;;;;;;;5061336;28;20384;-93
2022/02/05 08:04:41;;;;;;;;;;;;;;;;;;5064614;28;19933;-94
2022/02/05 08:07:09;;;;;;;;;;;;;;;;;;5063790;28;19933;-93
2022/02/05 08:09:49;;;;;;;;;;;;;;;;;;5063830;28;19982;-94
2022/02/05 08:12:17;;;;;;;;;;;;;;;;;;5064451;28;19929;-93
2022/02/05 08:14:47;;;;;;;;;;;;;;;;;;5064437;28;19929;-93
2022/02/05 08:17:19;;;;;;;;;;;;;;;;;;5062996;28;19975;-93
2022/02/05 08:19:46;;;;;;;;;;;;;;;;;;5061668;28;19925;-93
2022/02/05 08:22:12;;;;;;;;;;;;;;;;;;5055131;28;19999;-93
2022/02/05 08:24:39;;;;;;;;;;;;;;;;;;5061870;28;19929;-93
2022/02/05 08:27:05;;;;;;;;;;;;;;;;;;5062962;28;19987;-93
2022/02/05 08:29:32;;;;;;;;;;;;;;;;;;5063893;28;19974;-93
2022/02/05 08:31:59;;;;;;;;;;;;;;;;;;5063728;28;19925;-93
2022/02/05 08:34:25;;;;;;;;;;;;;;;;;;5064175;28;19935;-93
2022/02/05 08:36:52;;;;;;;;;;;;;;;;;;5061947;28;19928;-93
2022/02/05 08:39:19;;;;;;;;;;;;;;;;;;5061140;28;19936;-94
2022/02/05 08:41:45;;;;;;;;;;;;;;;;;;5062018;28;19978;-93
2022/02/05 08:44:11;;;;;;;;;;;;;;;;;;5061928;28;19925;-94
2022/02/05 08:46:38;;;;;;;;;;;;;;;;;;5062708;28;19924;-94
2022/02/05 08:49:04;;;;;;;;;;;;;;;;;;5069130;28;19974;-94
2022/02/05 08:51:30;;;;;;;;;;;;;;;;;;5083396;28;19955;-93
2022/02/05 08:53:57;;;;;;;;;;;;;;;;;;5082527;28;19954;-94
2022/02/05 08:56:24;;;;;;;;;;;;;;;;;;5081842;28;19960;-93
2022/02/05 08:58:50;;;;;;;;;;;;;;;;;;5080404;28;19971;-94
2022/02/05 09:01:19;;;;;;;;;;;;;;;;;;5081483;28;19928;-93
2022/02/05 09:03:57;;;;;;;;;;;;;;;;;;5082977;28;19924;-94
2022/02/05 09:06:27;;;;;;;;;;;;;;;;;;5079466;28;19931;-93
2022/02/05 09:09:02;;;;;;;;;;;;;;;;;;5045834;28;20363;-93
2022/02/05 09:11:35;;;;;;;;;;;;;;;;;;5062220;28;19931;-93
2022/02/05 09:14:14;;;;;;;;;;;;;;;;;;5066538;28;19993;-94
2022/02/05 09:16:40;;;;;;;;;;;;;;;;;;5082405;28;19932;-94
2022/02/05 09:19:06;;;;;;;;;;;;;;;;;;5081649;28;19928;-93
2022/02/05 09:21:32;;;;;;;;;;;;;;;;;;5081284;28;19981;-96
2022/02/05 09:24:01;;;;;;;;;;;;;;;;;;5081393;28;19950;-94
2022/02/05 09:26:29;;;;;;;;;;;;;;;;;;5055764;28;19936;-96
2022/02/05 09:29:02;;;;;;;;;;;;;;;;;;5044763;28;19929;-96
2022/02/05 09:31:32;;;;;;;;;;;;;;;;;;5062123;28;19929;-95
2022/02/05 09:33:58;;;;;;;;;;;;;;;;;;5062364;28;19924;-94
2022/02/05 09:36:26;;;;;;;;;;;;;;;;;;5062386;28;19956;-96
2022/02/05 09:38:52;;;;;;;;;;;;;;;;;;5062274;28;19928;-96
2022/02/05 09:41:19;;;;;;;;;;;;;;;;;;5061863;28;19925;-96
2022/02/05 09:43:45;;;;;;;;;;;;;;;;;;5062048;28;19929;-96
2022/02/05 09:46:11;;;;;;;;;;;;;;;;;;5062058;28;19929;-96
2022/02/05 09:48:38;;;;;;;;;;;;;;;;;;5062429;28;19951;-96
2022/02/05 09:51:08;;;;;;;;;;;;;;;;;;5062929;28;19925;-96
2022/02/05 09:53:34;;;;;;;;;;;;;;;;;;5062886;28;19939;-96
2022/02/05 09:56:01;;;;;;;;;;;;;;;;;;5063586;28;19931;-96
2022/02/05 09:58:27;;;;;;;;;;;;;;;;;;5064380;28;19932;-96
2022/02/05 10:00:53;;;;;;;;;;;;;;;;;;5066374;28;19984;-96
2022/02/05 10:03:20;;;;;;;;;;;;;;;;;;5064890;28;19925;-96
2022/02/05 10:05:46;;;;;;;;;;;;;;;;;;5079663;28;19925;-96
2022/02/05 10:08:14;;;;;;;;;;;;;;;;;;5083777;28;19924;-97
2022/02/05 10:10:41;;;;;;;;;;;;;;;;;;5067998;28;19978;-96
2022/02/05 10:13:07;;;;;;;;;;;;;;;;;;5063440;28;19929;-96
2022/02/05 10:15:33;;;;;;;;;;;;;;;;;;5063513;28;19924;-96
2022/02/05 10:18:02;;;;;;;;;;;;;;;;;;5063059;28;19935;-96
2022/02/05 10:20:29;;;;;;;;;;;;;;;;;;5074643;28;19932;-96
2022/02/05 10:22:56;;;;;;;;;;;;;;;;;;5082023;28;19924;-96
2022/02/05 10:25:23;;;;;;;;;;;;;;;;;;5070244;28;19925;-96
2022/02/05 10:27:50;;;;;;;;;;;;;;;;;;5064439;28;19925;-96
2022/02/05 10:30:20;;;;;;;;;;;;;;;;;;5064065;28;19925;-96
2022/02/05 10:32:50;;;;;;;;;;;;;;;;;;5061897;28;19929;-96
2022/02/05 10:35:29;;;;;;;;;;;;;;;;;;5070947;28;19996;-96
2022/02/05 10:38:14;;;;;;;;;;;;;;;;;;5081385;28;19944;-96
2022/02/05 10:40:44;;;;;;;;;;;;;;;;;;5069107;28;19960;-96
2022/02/05 10:43:09;;;;;;;;;;;;;;;;;;5063556;28;19929;-96
2022/02/05 10:45:36;;;;;;;;;;;;;;;;;;5074987;28;20027;-96
2022/02/05 10:48:02;;;;;;;;;;;;;;;;;;5084441;28;19958;-96
2022/02/05 10:50:28;;;;;;;;;;;;;;;;;;5085076;28;20562;-96
2022/02/05 10:52:58;;;;;;;;;;;;;;;;;;5086543;28;19928;-96
2022/02/05 10:55:31;;;;;;;;;;;;;;;;;;5077997;28;19928;-96
2022/02/05 10:58:16;;;;;;;;;;;;;;;;;;5064943;28;19935;-96
2022/02/05 11:06:10;;;;;;;;;;;;;;;;;;5065028;28;19924;-96
2022/02/05 11:08:37;;;;;;;;;;;;;;;;;;5068075;28;19933;-96
2022/02/05 11:19:15;;;;;;;;;;;;;;;;;;5065641;28;20368;-96
2022/02/05 11:21:43;;;;;;;;;;;;;;;;;;5066732;28;19929;-96
2022/02/05 11:24:10;;;;;;;;;;;;;;;;;;5067129;28;19996;-96
2022/02/05 11:26:36;;;;;;;;;;;;;;;;;;5066961;28;19932;-96
2022/02/05 11:29:02;;;;;;;;;;;;;;;;;;5066944;28;19924;-96
2022/02/05 11:31:32;;;;;;;;;;;;;;;;;;5068354;28;19928;-96
2022/02/05 11:33:58;;;;;;;;;;;;;;;;;;5066654;28;19974;-96
2022/02/05 11:36:40;;;;;;;;;;;;;;;;;;5066069;28;19939;-96
2022/02/05 11:39:07;;;;;;;;;;;;;;;;;;5064888;28;20054;-96
2022/02/05 11:41:33;;;;;;;;;;;;;;;;;;5084070;28;19924;-96
2022/02/05 11:44:00;;;;;;;;;;;;;;;;;;5087052;28;19924;-95
2022/02/05 11:46:28;;;;;;;;;;;;;;;;;;5086598;28;19924;-94
2022/02/05 11:48:55;;;;;;;;;;;;;;;;;;5085452;28;19970;-96
2022/02/05 11:51:21;;;;;;;;;;;;;;;;;;5085573;28;19939;-95
2022/02/05 11:53:48;;;;;;;;;;;;;;;;;;5086041;28;19978;-96
2022/02/05 11:56:14;;;;;;;;;;;;;;;;;;5088376;28;20339;-96
2022/02/05 11:58:40;;;;;;;;;;;;;;;;;;5087563;28;19940;-95
2022/02/05 12:01:06;;;;;;;;;;;;;;;;;;5085021;28;19924;-95
2022/02/05 12:03:35;;;;;;;;;;;;;;;;;;5083831;28;19931;-96
2022/02/05 12:06:02;;;;;;;;;;;;;;;;;;5083582;28;20015;-95
2022/02/05 12:08:28;;;;;;;;;;;;;;;;;;5068223;28;19924;-96
2022/02/05 12:10:57;;;;;;;;;;;;;;;;;;5063007;28;19928;-96
2022/02/05 12:13:25;;;;;;;;;;;;;;;;;;5066233;28;19925;-95
2022/02/05 12:15:51;;;;;;;;;;;;;;;;;;5064966;28;19959;-96
2022/02/05 12:18:26;;;;;;;;;;;;;;;;;;5064993;28;19947;-96
2022/02/05 12:20:53;;;;;;;;;;;;;;;;;;5064554;28;19978;-96
2022/02/05 12:23:29;;;;;;;;;;;;;;;;;;5062360;28;19963;-96
2022/02/05 12:25:55;;;;;;;;;;;;;;;;;;5061858;28;20012;-96
2022/02/05 12:28:22;;;;;;;;;;;;;;;;;;5063907;28;19932;-96
2022/02/05 12:30:48;;;;;;;;;;;;;;;;;;5072280;28;19932;-95
2022/02/05 12:33:14;;;;;;;;;;;;;;;;;;5082161;28;19924;-96
2022/02/05 12:35:41;;;;;;;;;;;;;;;;;;5081530;28;19925;-95
2022/02/05 12:38:07;;;;;;;;;;;;;;;;;;5082030;28;19929;-96
2022/02/05 12:40:33;;;;;;;;;;;;;;;;;;5082081;28;20371;-96
2022/02/05 12:43:00;;;;;;;;;;;;;;;;;;5082550;28;19928;-96
2022/02/05 12:45:26;;;;;;;;;;;;;;;;;;5082628;28;19952;-95
2022/02/05 12:47:53;;;;;;;;;;;;;;;;;;5083132;28;19936;-96
2022/02/05 12:50:19;;;;;;;;;;;;;;;;;;5081024;28;19924;-96
2022/02/05 12:52:45;;;;;;;;;;;;;;;;;;5063644;28;19994;-96
2022/02/05 12:55:14;;;;;;;;;;;;;;;;;;5065372;28;19924;-96
2022/02/05 12:57:45;;;;;;;;;;;;;;;;;;5084931;28;19946;-96
2022/02/05 13:00:11;;;;;;;;;;;;;;;;;;5085329;28;19996;-96
2022/02/05 13:02:38;;;;;;;;;;;;;;;;;;5065747;28;19929;-96
2022/02/05 13:05:05;;;;;;;;;;;;;;;;;;5068989;28;20223;-96
2022/02/05 13:07:32;;;;;;;;;;;;;;;;;;5045016;28;19964;-96
2022/02/05 13:10:00;;;;;;;;;;;;;;;;;;5042963;28;19984;-96
2022/02/05 13:12:26;;;;;;;;;;;;;;;;;;5087319;28;19924;-96
2022/02/05 13:14:56;;;;;;;;;;;;;;;;;;5085127;28;19932;-96
2022/02/05 13:17:23;;;;;;;;;;;;;;;;;;5071055;28;19931;-96
2022/02/05 13:20:03;;;;;;;;;;;;;;;;;;5071879;28;19968;-96
2022/02/05 13:34:06;;;;;;;;;;;;;;;;;;5055428;28;19989;-96
2022/02/05 13:36:42;;;;;;;;;;;;;;;;;;5073459;28;19928;-96
2022/02/05 13:39:15;;;;;;;;;;;;;;;;;;5082398;28;19932;-96
2022/02/05 13:41:46;;;;;;;;;;;;;;;;;;5084387;28;19931;-96
2022/02/05 13:44:16;;;;;;;;;;;;;;;;;;5066828;28;19936;-96
2022/02/05 13:46:42;;;;;;;;;;;;;;;;;;5062288;28;19931;-96
2022/02/05 13:49:08;;;;;;;;;;;;;;;;;;5060258;28;20909;-96
2022/02/05 13:51:35;;;;;;;;;;;;;;;;;;5061395;28;20047;-95
2022/02/05 13:54:01;;;;;;;;;;;;;;;;;;5063110;28;19970;-96
2022/02/05 13:56:27;;;;;;;;;;;;;;;;;;5071434;28;19935;-96
2022/02/05 13:58:53;;;;;;;;;;;;;;;;;;5083643;28;20364;-96
2022/02/05 14:01:20;;;;;;;;;;;;;;;;;;5083826;28;19928;-96
2022/02/05 14:03:46;;;;;;;;;;;;;;;;;;5084540;28;19928;-96
2022/02/05 14:06:13;;;;;;;;;;;;;;;;;;5076967;28;19925;-96
2022/02/05 14:08:39;;;;;;;;;;;;;;;;;;5064025;28;19935;-96
2022/02/05 14:11:06;;;;;;;;;;;;;;;;;;5064654;28;19928;-96
2022/02/05 14:13:32;;;;;;;;;;;;;;;;;;5064474;28;20607;-96
2022/02/05 14:16:00;;;;;;;;;;;;;;;;;;5066676;28;19928;-96
2022/02/05 14:18:26;;;;;;;;;;;;;;;;;;5083289;28;19951;-96
2022/02/05 14:20:52;;;;;;;;;;;;;;;;;;5079725;28;19933;-96
2022/02/05 14:23:20;;;;;;;;;;;;;;;;;;5062390;28;19951;-96
2022/02/05 14:25:47;;;;;;;;;;;;;;;;;;5063701;28;19929;-96
2022/02/05 14:28:16;;;;;;;;;;;;;;;;;;5081701;28;19924;-96
2022/02/05 14:30:55;;;;;;;;;;;;;;;;;;5071753;28;19925;-96
2022/02/05 14:33:24;;;;;;;;;;;;;;;;;;5062826;28;19951;-96
2022/02/05 14:36:16;;;;;;;;;;;;;;;;;;5044988;28;20039;-96
2022/02/05 14:41:28;;;;;;;;;;;;;;;;;;5063551;28;19927;-96
2022/02/05 14:43:55;;;;;;;;;;;;;;;;;;5064296;28;19925;-96
2022/02/05 14:46:22;;;;;;;;;;;;;;;;;;5073629;28;20426;-96
2022/02/05 14:48:48;;;;;;;;;;;;;;;;;;5088932;28;19931;-96
2022/02/05 14:51:20;;;;;;;;;;;;;;;;;;5087099;28;19920;-96
2022/02/05 14:53:47;;;;;;;;;;;;;;;;;;5066291;28;19928;-96
2022/02/05 14:56:13;;;;;;;;;;;;;;;;;;5068334;28;19924;-96
2022/02/05 14:58:39;;;;;;;;;;;;;;;;;;5083201;28;19924;-96
2022/02/05 15:01:06;;;;;;;;;;;;;;;;;;5070008;28;19928;-96
2022/02/05 15:03:35;;;;;;;;;;;;;;;;;;5063951;28;19933;-96
2022/02/05 15:06:07;;;;;;;;;;;;;;;;;;5063614;28;19924;-96
2022/02/05 15:08:33;;;;;;;;;;;;;;;;;;5066117;28;19921;-96
2022/02/05 15:11:02;;;;;;;;;;;;;;;;;;5064728;28;19925;-96
2022/02/05 15:13:28;;;;;;;;;;;;;;;;;;5086729;28;19984;-96
2022/02/05 15:16:00;;;;;;;;;;;;;;;;;;5065899;28;19924;-96
2022/02/05 15:18:27;;;;;;;;;;;;;;;;;;5045772;28;19933;-96
2022/02/05 15:20:53;;;;;;;;;;;;;;;;;;5064148;28;20229;-96
2022/02/05 15:23:19;;;;;;;;;;;;;;;;;;5066199;28;19936;-96
2022/02/05 15:25:46;;;;;;;;;;;;;;;;;;5065911;28;19925;-96
2022/02/05 15:28:12;;;;;;;;;;;;;;;;;;5069782;28;19992;-96
2022/02/05 15:30:38;;;;;;;;;;;;;;;;;;5068015;28;19931;-96
2022/02/05 15:33:05;;;;;;;;;;;;;;;;;;5083510;28;19929;-96
2022/02/05 15:35:32;;;;;;;;;;;;;;;;;;5085446;28;19932;-96
2022/02/05 15:38:06;;;;;;;;;;;;;;;;;;5084831;28;19928;-96
2022/02/05 15:43:39;;;;;;;;;;;;;;;;;;5070443;28;20232;-96
2022/02/05 15:46:05;;;;;;;;;;;;;;;;;;5068725;28;19924;-96
2022/02/05 15:48:33;;;;;;;;;;;;;;;;;;5073197;28;20004;-96
2022/02/05 15:53:47;;;;;;;;;;;;;;;;;;5117795;22;19925;-96
2022/02/05 16:01:39;;;;;;;;;;;;;;;;;;5907739;22;19909;-96
2022/02/05 16:04:07;;;;;;;;;;;;;;;;;;5075987;22;20031;-96
2022/02/05 16:09:32;;;;;;;;;;;;;;;;;;5141235;22;19924;-96
2022/02/05 16:11:59;;;;;;;;;;;;;;;;;;5094964;28;19958;-96
2022/02/05 16:14:25;;;;;;;;;;;;;;;;;;5111777;28;19924;-96
2022/02/05 16:16:52;;;;;;;;;;;;;;;;;;5106318;28;19943;-96
2022/02/05 16:19:23;;;;;;;;;;;;;;;;;;5110962;28;19937;-96
2022/02/05 16:26:57;;;;;;;;;;;;;;;;;;5097736;28;19925;-96
2022/02/05 16:29:34;;;;;;;;;;;;;;;;;;5078729;28;19929;-96
2022/02/05 16:37:25;;;;;;;;;;;;;;;;;;5627692;22;20794;-96
2022/02/05 16:40:03;;;;;;;;;;;;;;;;;;5093677;28;19925;-96
2022/02/05 16:42:30;;;;;;;;;;;;;;;;;;5089886;28;19931;-96
2022/02/05 16:44:56;;;;;;;;;;;;;;;;;;5088638;28;19914;-96
2022/02/05 16:47:22;;;;;;;;;;;;;;;;;;5086097;28;19995;-96
2022/02/05 16:49:59;;;;;;;;;;;;;;;;;;5089885;28;19999;-96
2022/02/05 16:55:06;;;;;;;;;;;;;;;;;;5091824;28;19935;-96
2022/02/05 16:57:32;;;;;;;;;;;;;;;;;;5096862;28;19928;-96
2022/02/05 16:59:59;;;;;;;;;;;;;;;;;;5108401;28;19967;-96
2022/02/05 17:02:25;;;;;;;;;;;;;;;;;;5107971;28;19924;-96
2022/02/05 17:04:52;;;;;;;;;;;;;;;;;;5108031;28;19928;-96
2022/02/05 17:07:18;;;;;;;;;;;;;;;;;;5105926;28;19925;-96
2022/02/05 17:12:25;;;;;;;;;;;;;;;;;;5093326;28;19924;-96
2022/02/05 17:14:56;;;;;;;;;;;;;;;;;;5085660;28;19928;-96
2022/02/05 17:17:23;;;;;;;;;;;;;;;;;;5088888;28;19935;-96
2022/02/05 17:19:52;;;;;;;;;;;;;;;;;;5087718;28;19924;-96
2022/02/05 17:22:20;;;;;;;;;;;;;;;;;;5094797;28;19945;-95
2022/02/05 17:24:47;;;;;;;;;;;;;;;;;;5109211;28;19947;-96
2022/02/05 17:27:13;;;;;;;;;;;;;;;;;;5106823;28;19925;-96
2022/02/05 17:29:40;;;;;;;;;;;;;;;;;;5105819;28;19991;-96
2022/02/05 17:32:06;;;;;;;;;;;;;;;;;;5101956;28;19924;-96
2022/02/05 17:34:35;;;;;;;;;;;;;;;;;;5082655;28;20380;-96
2022/02/05 17:37:01;;;;;;;;;;;;;;;;;;5082806;28;19932;-95
2022/02/05 17:39:27;;;;;;;;;;;;;;;;;;5084234;28;19951;-95
2022/02/05 17:41:54;;;;;;;;;;;;;;;;;;5084086;28;19924;-96
2022/02/05 17:44:20;;;;;;;;;;;;;;;;;;5083760;28;19977;-95
2022/02/05 17:46:48;;;;;;;;;;;;;;;;;;5066116;28;19928;-95
2022/02/05 17:49:14;;;;;;;;;;;;;;;;;;5102051;28;19930;-96
2022/02/05 17:51:40;;;;;;;;;;;;;;;;;;5104350;28;19927;-96
2022/02/05 17:54:07;;;;;;;;;;;;;;;;;;5085542;28;19924;-96
2022/02/05 17:56:40;;;;;;;;;;;;;;;;;;5082840;28;19982;-94
2022/02/05 17:59:06;;;;;;;;;;;;;;;;;;5098444;28;19960;-96
2022/02/05 18:01:33;;;;;;;;;;;;;;;;;;5102637;28;19924;-96
2022/02/05 18:03:59;;;;;;;;;;;;;;;;;;5087941;28;19985;-96
2022/02/05 18:06:32;;;;;;;;;;;;;;;;;;5083547;28;19982;-96
2022/02/05 18:09:05;;;;;;;;;;;;;;;;;;5098878;28;19924;-96
2022/02/05 18:11:34;;;;;;;;;;;;;;;;;;5103515;28;19974;-96
2022/02/05 18:14:18;;;;;;;;;;;;;;;;;;5097415;28;19985;-96
2022/02/05 18:16:44;;;;;;;;;;;;;;;;;;5082452;28;19932;-96
2022/02/05 18:19:10;;;;;;;;;;;;;;;;;;5082231;28;19925;-96
2022/02/05 18:21:37;;;;;;;;;;;;;;;;;;5082174;28;19931;-96
2022/02/05 18:24:03;;;;;;;;;;;;;;;;;;5093857;28;19935;-96
2022/02/05 18:26:29;;;;;;;;;;;;;;;;;;5083569;28;19928;-96
2022/02/05 18:28:56;;;;;;;;;;;;;;;;;;5096816;28;19924;-96
2022/02/05 18:31:22;;;;;;;;;;;;;;;;;;5104023;28;19936;-96
2022/02/05 18:33:48;;;;;;;;;;;;;;;;;;5089739;28;19924;-96
2022/02/05 18:36:15;;;;;;;;;;;;;;;;;;5082858;28;19924;-96
2022/02/05 18:38:41;;;;;;;;;;;;;;;;;;5094030;28;19928;-96
2022/02/05 18:41:09;;;;;;;;;;;;;;;;;;5102990;28;19924;-96
2022/02/05 18:43:36;;;;;;;;;;;;;;;;;;5091890;28;19924;-94
2022/02/05 18:46:02;;;;;;;;;;;;;;;;;;5081877;28;19935;-96
2022/02/05 18:48:28;;;;;;;;;;;;;;;;;;5080811;28;19947;-96
2022/02/05 18:50:55;;;;;;;;;;;;;;;;;;5063471;28;19937;-96
2022/02/05 18:53:21;;;;;;;;;;;;;;;;;;5080847;28;19924;-96
2022/02/05 18:55:47;;;;;;;;;;;;;;;;;;5080802;28;19932;-96
2022/02/05 18:58:14;;;;;;;;;;;;;;;;;;5082722;28;19931;-96
2022/02/05 19:00:50;;;;;;;;;;;;;;;;;;5083253;28;19968;-96
2022/02/05 19:03:39;;;;;;;;;;;;;;;;;;5081715;28;19932;-96
2022/02/05 19:14:25;;;;;;;;;;;;;;;;;;5086048;28;19919;-96
2022/02/05 19:19:35;;;;;;;;;;;;;;;;;;5091274;28;19951;-96
2022/02/05 19:22:01;;;;;;;;;;;;;;;;;;5089184;28;19924;-96
2022/02/05 19:24:29;;;;;;;;;;;;;;;;;;5085915;28;20390;-96
2022/02/05 19:26:57;;;;;;;;;;;;;;;;;;5090064;28;19988;-96
2022/02/05 19:29:25;;;;;;;;;;;;;;;;;;5073525;28;19931;-96
2022/02/05 19:34:32;;;;;;;;;;;;;;;;;;5093034;28;19931;-97
2022/02/05 19:37:00;;;;;;;;;;;;;;;;;;5093469;28;19928;-96
2022/02/05 19:39:28;;;;;;;;;;;;;;;;;;5079819;28;19920;-96
2022/02/05 19:47:01;;;;;;;;;;;;;;;;;;5189345;22;19931;-96
2022/02/05 19:49:28;;;;;;;;;;;;;;;;;;5092897;28;19952;-96
2022/02/05 19:51:55;;;;;;;;;;;;;;;;;;5091279;28;19964;-96
2022/02/05 19:54:21;;;;;;;;;;;;;;;;;;5090489;28;19946;-96
2022/02/05 19:56:48;;;;;;;;;;;;;;;;;;5087370;28;19924;-96
2022/02/05 19:59:15;;;;;;;;;;;;;;;;;;5065676;28;19925;-96
2022/02/05 20:01:43;;;;;;;;;;;;;;;;;;5087050;28;19920;-96
2022/02/05 20:04:15;;;;;;;;;;;;;;;;;;5081961;28;19978;-96
2022/02/05 20:06:45;;;;;;;;;;;;;;;;;;5090571;28;19936;-96
2022/02/05 20:17:03;;;;;;;;;;;;;;;;;;5075862;28;19921;-96